Time;durP1;ratioP1;P1;durP2;ratioP2;P2;SDS_P1;SDS_P2;PMS_P1;PMS_P2;Temp;Humidity;BMP_temperature;BMP_pressure;BME280_temperature;BME280_humidity;BME280_pressure;Samples;Min_cycle;Max_cycle;Signal;HPM_P1;HPM_P2
2024/02/27 00:01:19;;;;;;;19.50;12.97;;;;;4.50;100877.00;;;;10362982;28;20227;-76
2024/02/27 00:06:20;;;;;;;20.43;12.63;;;;;4.50;100883.00;;;;10359804;28;20272;-76
2024/02/27 00:11:22;;;;;;;18.73;12.67;;;;;4.50;100883.00;;;;10368012;28;20215;-77
2024/02/27 00:16:23;;;;;;;19.67;13.73;;;;;4.50;100880.00;;;;10366071;28;20227;-77
2024/02/27 00:21:24;;;;;;;20.57;11.83;;;;;4.40;100888.00;;;;10372047;28;20684;-77
2024/02/27 00:26:25;;;;;;;18.90;11.60;;;;;4.40;100888.00;;;;10362824;28;20218;-78
2024/02/27 00:31:26;;;;;;;18.60;11.97;;;;;4.40;100887.00;;;;10367267;28;20233;-77
2024/02/27 00:36:27;;;;;;;16.60;11.07;;;;;4.40;100899.00;;;;10335303;28;20223;-77
2024/02/27 00:41:28;;;;;;;20.50;12.50;;;;;4.40;100899.00;;;;10347570;28;20684;-77
2024/02/27 00:46:30;;;;;;;18.37;11.43;;;;;4.40;100889.00;;;;10364675;28;20225;-77
2024/02/27 00:51:31;;;;;;;23.07;12.53;;;;;4.30;100902.00;;;;10359221;28;20238;-76
2024/02/27 00:56:32;;;;;;;19.17;12.33;;;;;4.20;100909.00;;;;10338787;28;21026;-78
2024/02/27 01:01:34;;;;;;;18.40;12.10;;;;;4.10;100908.00;;;;10361467;28;20305;-77
2024/02/27 01:06:35;;;;;;;17.10;12.23;;;;;4.10;100913.00;;;;10380185;28;20648;-76
2024/02/27 01:11:36;;;;;;;20.23;13.07;;;;;4.10;100900.00;;;;10331976;28;20233;-78
2024/02/27 01:16:38;;;;;;;19.70;12.60;;;;;4.10;100902.00;;;;10367614;28;20229;-80
2024/02/27 01:21:42;;;;;;;18.50;13.57;;;;;4.10;100903.00;;;;10369420;28;20243;-81
2024/02/27 01:26:43;;;;;;;24.03;14.07;;;;;4.00;100908.00;;;;10366791;28;20221;-80
2024/02/27 01:31:45;;;;;;;19.37;13.23;;;;;4.00;100916.00;;;;10342602;28;20226;-81
2024/02/27 01:36:47;;;;;;;21.37;13.57;;;;;4.00;100909.00;;;;10375893;28;20233;-81
2024/02/27 01:41:48;;;;;;;18.80;13.33;;;;;3.90;100916.00;;;;10369832;28;20593;-80
2024/02/27 01:46:50;;;;;;;21.67;13.63;;;;;3.90;100924.00;;;;10365175;28;20225;-80
2024/02/27 01:51:51;;;;;;;20.93;13.90;;;;;3.70;100925.00;;;;10338845;28;20228;-81
2024/02/27 01:56:55;;;;;;;23.90;14.37;;;;;3.60;100924.00;;;;10379180;28;20253;-81
2024/02/27 02:01:59;;;;;;;22.60;14.63;;;;;3.70;100947.00;;;;10375200;28;20224;-81
2024/02/27 02:07:02;;;;;;;22.37;13.53;;;;;3.70;100947.00;;;;10370929;28;20276;-81
2024/02/27 02:12:05;;;;;;;19.97;13.53;;;;;3.70;100953.00;;;;10385598;28;20316;-80
2024/02/27 02:17:07;;;;;;;24.63;14.90;;;;;3.70;100950.00;;;;10381379;28;20219;-81
2024/02/27 02:22:08;;;;;;;22.13;14.43;;;;;3.70;100946.00;;;;10379987;28;20945;-81
2024/02/27 02:27:14;;;;;;;22.63;13.97;;;;;3.60;100945.00;;;;10373080;28;20219;-81
2024/02/27 02:32:15;;;;;;;25.63;15.20;;;;;3.50;100951.00;;;;10362058;28;20571;-81
2024/02/27 02:37:17;;;;;;;23.73;14.43;;;;;3.40;100959.00;;;;10371636;28;20222;-81
2024/02/27 02:42:18;;;;;;;27.07;16.10;;;;;3.40;100963.00;;;;10365688;28;20946;-81
2024/02/27 02:47:19;;;;;;;26.47;16.37;;;;;3.40;100961.00;;;;10361637;28;20923;-81
2024/02/27 02:52:20;;;;;;;27.23;16.20;;;;;3.40;100978.00;;;;10369187;28;20947;-80
2024/02/27 02:57:21;;;;;;;26.73;16.00;;;;;3.50;100982.00;;;;10358698;28;20322;-81
2024/02/27 03:02:23;;;;;;;25.57;16.50;;;;;3.50;100985.00;;;;10370779;28;20221;-81
2024/02/27 03:07:24;;;;;;;26.03;15.80;;;;;3.60;100979.00;;;;10380853;28;20767;-81
2024/02/27 03:12:26;;;;;;;28.87;18.03;;;;;3.60;100991.00;;;;10361101;28;20214;-81
2024/02/27 03:17:27;;;;;;;25.90;16.50;;;;;3.60;100980.00;;;;10364503;28;20222;-81
2024/02/27 03:22:28;;;;;;;26.63;15.40;;;;;3.60;100983.00;;;;10368784;28;20218;-81
2024/02/27 03:27:31;;;;;;;29.43;16.33;;;;;3.60;100978.00;;;;10395159;28;20317;-77
2024/02/27 03:32:32;;;;;;;24.67;15.77;;;;;3.60;100982.00;;;;10367519;28;20229;-76
2024/02/27 03:37:33;;;;;;;30.40;17.23;;;;;3.50;100978.00;;;;10343460;28;20927;-76
2024/02/27 03:42:34;;;;;;;26.33;16.80;;;;;3.50;100986.00;;;;10347398;28;20653;-76
2024/02/27 03:47:36;;;;;;;28.17;16.77;;;;;3.40;100977.00;;;;10363474;28;20223;-76
2024/02/27 03:52:37;;;;;;;27.10;17.10;;;;;3.50;100969.00;;;;10354422;28;20231;-78
2024/02/27 03:57:38;;;;;;;29.60;17.67;;;;;3.40;100973.00;;;;10343801;28;20255;-76
2024/02/27 04:02:42;;;;;;;28.73;16.90;;;;;3.40;100984.00;;;;10359324;28;20298;-76
2024/02/27 04:07:43;;;;;;;27.27;17.03;;;;;3.50;101005.00;;;;10344095;28;20243;-77
2024/02/27 04:12:44;;;;;;;30.80;17.00;;;;;3.50;101012.00;;;;10354943;28;20280;-79
2024/02/27 04:17:45;;;;;;;29.87;18.47;;;;;3.60;101003.00;;;;10319114;28;20251;-77
2024/02/27 04:22:46;;;;;;;27.90;17.47;;;;;3.60;100999.00;;;;10329231;28;20772;-77
2024/02/27 04:27:47;;;;;;;30.10;18.80;;;;;3.60;101007.00;;;;10368961;28;20305;-78
2024/02/27 04:32:49;;;;;;;26.60;17.03;;;;;3.50;101014.00;;;;10370473;28;20691;-76
2024/02/27 04:37:50;;;;;;;28.83;16.80;;;;;3.50;101019.00;;;;10363560;28;20688;-79
2024/02/27 04:42:51;;;;;;;28.97;16.27;;;;;3.40;101014.00;;;;10378106;28;20290;-79
2024/02/27 04:47:52;;;;;;;26.43;15.97;;;;;3.40;101033.00;;;;10348286;28;20831;-80
2024/02/27 04:52:53;;;;;;;29.60;16.33;;;;;3.40;101043.00;;;;10370365;28;20226;-79
2024/02/27 04:57:55;;;;;;;28.33;16.77;;;;;3.50;101056.00;;;;10340976;28;20250;-80
2024/02/27 05:02:56;;;;;;;28.50;17.57;;;;;3.50;101055.00;;;;10357896;28;20263;-79
2024/02/27 05:07:57;;;;;;;28.93;16.77;;;;;3.50;101067.00;;;;10356516;28;20226;-79
2024/02/27 05:13:00;;;;;;;28.70;16.50;;;;;3.60;101071.00;;;;10359142;28;20222;-80
2024/02/27 05:18:03;;;;;;;29.93;17.00;;;;;3.60;101083.00;;;;10392823;28;20657;-79
2024/02/27 05:23:05;;;;;;;27.30;16.73;;;;;3.60;101085.00;;;;10365364;28;20612;-79
2024/02/27 05:28:06;;;;;;;25.20;14.90;;;;;3.60;101095.00;;;;10379019;28;20233;-79
2024/02/27 05:33:08;;;;;;;25.43;16.07;;;;;3.50;101106.00;;;;10363831;28;21081;-80
2024/02/27 05:38:09;;;;;;;23.43;14.97;;;;;3.50;101102.00;;;;10352105;28;22313;-79
2024/02/27 05:43:10;;;;;;;26.93;14.67;;;;;3.40;101100.00;;;;10371024;28;20906;-79
2024/02/27 05:48:11;;;;;;;27.90;13.47;;;;;3.30;101114.00;;;;10365539;28;20296;-78
2024/02/27 05:53:13;;;;;;;25.30;13.93;;;;;3.30;101125.00;;;;10323379;28;20309;-79
2024/02/27 05:58:14;;;;;;;27.23;15.37;;;;;3.30;101131.00;;;;10367781;28;20708;-80
2024/02/27 06:03:15;;;;;;;25.87;14.57;;;;;3.30;101142.00;;;;10355468;28;20310;-78
2024/02/27 06:08:17;;;;;;;26.37;16.27;;;;;3.30;101140.00;;;;10389936;28;20901;-77
2024/02/27 06:13:18;;;;;;;24.43;15.60;;;;;3.40;101140.00;;;;10377621;28;20999;-78
2024/02/27 06:18:19;;;;;;;29.17;16.40;;;;;3.40;101139.00;;;;10326643;28;20231;-78
2024/02/27 06:23:20;;;;;;;23.90;14.80;;;;;3.40;101142.00;;;;10334418;28;20225;-78
2024/02/27 06:28:22;;;;;;;25.50;15.37;;;;;3.40;101145.00;;;;10375777;28;20266;-78
2024/02/27 06:33:23;;;;;;;26.43;15.93;;;;;3.40;101163.00;;;;10348834;28;20305;-77
2024/02/27 06:38:25;;;;;;;26.40;15.87;;;;;3.40;101167.00;;;;10305842;28;20321;-77
2024/02/27 06:43:26;;;;;;;26.77;16.17;;;;;3.40;101179.00;;;;10374281;28;20250;-79
2024/02/27 06:48:28;;;;;;;27.03;15.67;;;;;3.40;101183.00;;;;10361176;28;20227;-79
2024/02/27 06:53:30;;;;;;;26.67;16.67;;;;;3.50;101182.00;;;;10344106;28;20223;-78
2024/02/27 06:58:31;;;;;;;22.80;15.57;;;;;3.50;101169.00;;;;10359394;28;20284;-76
2024/02/27 07:03:32;;;;;;;24.10;15.30;;;;;3.40;101161.00;;;;10365431;28;20290;-77
2024/02/27 07:08:33;;;;;;;23.97;15.73;;;;;3.40;101173.00;;;;10354698;28;20226;-75
2024/02/27 07:13:34;;;;;;;25.20;16.13;;;;;3.40;101179.00;;;;10359811;28;20223;-75
2024/02/27 07:18:35;;;;;;;25.70;15.90;;;;;3.50;101198.00;;;;10398584;28;20253;-75
2024/02/27 07:23:37;;;;;;;31.47;17.30;;;;;3.60;101209.00;;;;10373078;28;20218;-75
2024/02/27 07:28:38;;;;;;;31.03;17.57;;;;;3.80;101211.00;;;;10409224;28;20305;-74
2024/02/27 07:33:39;;;;;;;33.03;17.87;;;;;3.90;101221.00;;;;10375014;28;20230;-76
2024/02/27 07:38:40;;;;;;;26.17;16.97;;;;;4.00;101218.00;;;;10363829;28;20234;-75
2024/02/27 07:43:41;;;;;;;29.07;18.73;;;;;4.00;101214.00;;;;10347178;28;20255;-76
2024/02/27 07:48:43;;;;;;;31.20;19.00;;;;;3.90;101212.00;;;;10353147;28;20312;-75
2024/02/27 07:53:44;;;;;;;29.13;18.97;;;;;3.80;101220.00;;;;10348570;28;20685;-75
2024/02/27 07:58:45;;;;;;;27.83;18.33;;;;;4.00;101234.00;;;;10345886;28;20712;-76
2024/02/27 08:03:46;;;;;;;30.73;19.30;;;;;4.10;101240.00;;;;10356810;28;20215;-75
2024/02/27 08:08:49;;;;;;;28.47;18.30;;;;;4.30;101249.00;;;;10360756;28;20229;-79
2024/02/27 08:13:50;;;;;;;31.40;20.53;;;;;4.40;101255.00;;;;10363207;28;20926;-79
2024/02/27 08:18:51;;;;;;;31.83;20.97;;;;;4.50;101269.00;;;;10379690;28;20214;-79
2024/02/27 08:23:52;;;;;;;32.73;21.60;;;;;4.60;101267.00;;;;10375794;28;20225;-80
2024/02/27 08:28:55;;;;;;;31.33;20.37;;;;;4.60;101271.00;;;;10376741;28;20234;-80
2024/02/27 08:33:56;;;;;;;29.63;20.10;;;;;4.80;101277.00;;;;10337526;28;20215;-80
2024/02/27 08:38:58;;;;;;;33.90;20.73;;;;;4.80;101288.00;;;;10364891;28;20230;-79
2024/02/27 08:43:59;;;;;;;31.53;21.27;;;;;4.80;101295.00;;;;10378317;28;20839;-80
2024/02/27 08:49:02;;;;;;;30.10;19.23;;;;;4.90;101286.00;;;;10368146;28;20226;-80
2024/02/27 08:54:04;;;;;;;33.77;20.23;;;;;5.10;101273.00;;;;10365000;28;20226;-79
2024/02/27 08:59:08;;;;;;;33.87;20.37;;;;;5.30;101283.00;;;;10345516;28;20869;-80
2024/02/27 09:04:09;;;;;;;31.30;20.13;;;;;5.30;101281.00;;;;10371214;28;20230;-79
2024/02/27 09:09:11;;;;;;;25.60;15.50;;;;;5.20;101293.00;;;;10385504;28;20625;-80
2024/02/27 09:14:12;;;;;;;33.13;20.77;;;;;5.10;101306.00;;;;10372881;28;20223;-80
2024/02/27 09:19:13;;;;;;;29.07;19.30;;;;;5.20;101309.00;;;;10358170;28;20688;-78
2024/02/27 09:24:15;;;;;;;31.13;18.70;;;;;5.30;101304.00;;;;10399037;28;20263;-77
2024/02/27 09:29:16;;;;;;;30.20;19.60;;;;;5.40;101300.00;;;;10356731;28;20893;-78
2024/02/27 09:34:17;;;;;;;28.07;20.50;;;;;5.60;101289.00;;;;10378799;28;20894;-78
2024/02/27 09:39:18;;;;;;;33.43;21.57;;;;;5.70;101287.00;;;;10384516;28;20321;-78
2024/02/27 09:44:19;;;;;;;33.00;23.87;;;;;5.90;101292.00;;;;10375194;28;20222;-77
2024/02/27 09:49:22;;;;;;;31.07;22.93;;;;;6.20;101278.00;;;;10362926;28;20250;-78
2024/02/27 09:54:41;;;;;;;29.60;21.73;;;;;6.40;101281.00;;;;10374019;28;20226;-77
2024/02/27 09:59:46;;;;;;;26.27;19.73;;;;;6.80;101290.00;;;;10372794;28;20210;-77
2024/02/27 10:04:47;;;;;;;27.77;20.03;;;;;7.10;101285.00;;;;10370733;28;20274;-78
2024/02/27 10:09:48;;;;;;;25.80;18.40;;;;;7.20;101288.00;;;;10393328;28;20229;-78
2024/02/27 10:14:49;;;;;;;25.07;18.17;;;;;7.10;101292.00;;;;10369628;28;20254;-78
2024/02/27 10:19:51;;;;;;;24.13;17.40;;;;;7.30;101296.00;;;;10368824;28;20222;-78
2024/02/27 10:25:06;;;;;;;24.23;17.17;;;;;8.10;101295.00;;;;10362787;28;20863;-77
2024/02/27 10:30:10;;;;;;;17.00;14.07;;;;;9.00;101290.00;;;;10390572;28;20230;-76
2024/02/27 10:35:13;;;;;;;17.23;13.97;;;;;9.40;101276.00;;;;10378847;28;20234;-76
2024/02/27 10:40:15;;;;;;;16.93;13.37;;;;;9.60;101287.00;;;;10414894;28;20242;-79
2024/02/27 10:45:18;;;;;;;16.27;13.37;;;;;10.00;101294.00;;;;10388276;28;20276;-78
2024/02/27 10:50:20;;;;;;;16.43;12.93;;;;;10.30;101275.00;;;;10407172;28;20226;-77
2024/02/27 10:55:23;;;;;;;16.10;13.40;;;;;10.50;101295.00;;;;10397744;28;20321;-76
2024/02/27 11:00:25;;;;;;;16.80;12.73;;;;;10.80;101283.00;;;;10379454;28;20254;-77
2024/02/27 11:05:27;;;;;;;16.17;11.93;;;;;10.90;101273.00;;;;10383961;28;20227;-77
2024/02/27 11:10:29;;;;;;;15.37;11.80;;;;;11.10;101265.00;;;;10365932;28;20669;-77
2024/02/27 11:15:31;;;;;;;15.93;12.77;;;;;11.70;101264.00;;;;10359170;28;20317;-78
2024/02/27 11:20:34;;;;;;;13.47;11.80;;;;;11.80;101275.00;;;;10369973;28;20219;-77
2024/02/27 11:25:35;;;;;;;14.63;11.50;;;;;11.90;101263.00;;;;10366608;28;20227;-79
2024/02/27 11:30:37;;;;;;;13.13;11.50;;;;;12.20;101259.00;;;;10373989;28;20223;-78
2024/02/27 11:35:38;;;;;;;11.88;10.23;;;;;12.20;101251.00;;;;10379961;28;21043;-80
2024/02/27 11:40:47;;;;;;;12.53;10.87;;;;;12.40;101234.00;;;;10385050;28;20272;-79
2024/02/27 11:45:49;;;;;;;12.80;11.30;;;;;12.80;101233.00;;;;10375504;28;20217;-79
2024/02/27 11:50:50;;;;;;;12.10;10.50;;;;;12.70;101222.00;;;;10408282;28;20222;-77
2024/02/27 11:55:53;;;;;;;14.48;10.57;;;;;12.70;101224.00;;;;10389683;28;20803;-77
2024/02/27 12:00:54;;;;;;;12.95;10.57;;;;;12.80;101219.00;;;;10377292;28;20249;-78
2024/02/27 12:06:03;;;;;;;13.30;10.07;;;;;13.10;101212.00;;;;10364765;28;20210;-79
2024/02/27 12:11:06;;;;;;;12.45;8.80;;;;;13.00;101204.00;;;;10379837;28;20211;-78
2024/02/27 12:16:07;;;;;;;10.38;8.52;;;;;12.90;101210.00;;;;10385136;28;20581;-77
2024/02/27 12:21:09;;;;;;;11.00;8.52;;;;;13.00;101210.00;;;;10374671;28;20309;-78
2024/02/27 12:26:10;;;;;;;8.80;7.63;;;;;13.20;101204.00;;;;10354784;28;20230;-78
2024/02/27 12:31:11;;;;;;;9.40;7.22;;;;;13.30;101193.00;;;;10366643;28;21158;-78
2024/02/27 12:36:12;;;;;;;9.52;8.38;;;;;13.30;101201.00;;;;10378350;28;20333;-77
2024/02/27 12:41:13;;;;;;;8.50;7.60;;;;;13.50;101190.00;;;;10370699;28;20669;-79
2024/02/27 12:46:16;;;;;;;9.90;7.38;;;;;13.30;101187.00;;;;10384095;28;20506;-76
2024/02/27 12:51:17;;;;;;;8.75;7.70;;;;;13.50;101191.00;;;;10368764;28;20347;-77
2024/02/27 12:56:19;;;;;;;7.93;6.80;;;;;13.70;101185.00;;;;10371917;28;20309;-77
2024/02/27 13:01:21;;;;;;;7.80;6.93;;;;;13.80;101183.00;;;;10372773;28;20655;-78
2024/02/27 13:06:22;;;;;;;7.53;6.72;;;;;13.70;101193.00;;;;10369725;28;20231;-77
2024/02/27 13:11:24;;;;;;;8.07;6.43;;;;;13.50;101186.00;;;;10387976;28;20305;-78
2024/02/27 13:16:25;;;;;;;8.15;6.40;;;;;13.50;101185.00;;;;10332009;28;20615;-77
2024/02/27 13:21:29;;;;;;;9.15;6.50;;;;;13.60;101186.00;;;;10375260;28;20218;-77
2024/02/27 13:26:30;;;;;;;7.32;5.95;;;;;13.60;101189.00;;;;10356107;28;20233;-80
2024/02/27 13:31:32;;;;;;;7.72;6.38;;;;;13.30;101191.00;;;;10377886;28;20677;-78
2024/02/27 13:36:33;;;;;;;7.55;6.15;;;;;13.30;101200.00;;;;10373964;28;20223;-77
2024/02/27 13:41:35;;;;;;;8.10;6.55;;;;;13.20;101189.00;;;;10359052;28;20312;-77
2024/02/27 13:46:37;;;;;;;7.88;6.18;;;;;13.20;101194.00;;;;10387621;28;20219;-77
2024/02/27 13:51:38;;;;;;;7.18;5.88;;;;;13.20;101184.00;;;;10356456;28;20219;-77
2024/02/27 13:56:39;;;;;;;6.97;5.75;;;;;13.10;101182.00;;;;10376920;28;20233;-78
2024/02/27 14:01:40;;;;;;;7.60;6.40;;;;;13.40;101189.00;;;;10379246;28;20254;-78
2024/02/27 14:06:43;;;;;;;6.22;5.32;;;;;13.50;101181.00;;;;10337664;28;20736;-79
2024/02/27 14:11:44;;;;;;;7.88;5.45;;;;;14.90;101163.00;;;;10355781;28;20222;-78
2024/02/27 14:16:45;;;;;;;9.65;5.72;;;;;17.20;101064.00;;;;10363066;28;20312;-78
2024/02/27 14:21:46;;;;;;;6.20;5.60;;;;;16.20;101110.00;;;;10367643;28;20219;-79
2024/02/27 14:26:48;;;;;;;6.53;5.70;;;;;16.20;101112.00;;;;10357053;28;20222;-79
2024/02/27 14:31:49;;;;;;;6.90;5.68;;;;;16.20;101124.00;;;;10331707;28;20215;-78
2024/02/27 14:36:50;;;;;;;5.73;5.13;;;;;14.90;101145.00;;;;10327348;28;20302;-78
2024/02/27 14:41:52;;;;;;;7.57;5.40;;;;;14.60;101110.00;;;;10325379;28;20261;-78
2024/02/27 14:46:53;;;;;;;6.03;4.40;;;;;16.00;101091.00;;;;10340515;28;20736;-79
2024/02/27 14:51:55;;;;;;;7.67;5.23;;;;;15.30;101139.00;;;;10313803;28;20231;-78
2024/02/27 14:56:56;;;;;;;5.83;4.70;;;;;16.80;101103.00;;;;10316349;28;20298;-78
2024/02/27 15:01:57;;;;;;;5.50;4.43;;;;;15.80;101148.00;;;;10337532;28;20313;-78
2024/02/27 15:07:06;;;;;;;6.80;5.27;;;;;14.00;101159.00;;;;10366307;28;20237;-79
2024/02/27 15:12:08;;;;;;;8.30;4.60;;;;;15.00;101144.00;;;;10331116;28;20244;-78
2024/02/27 15:17:09;;;;;;;5.80;4.20;;;;;15.00;101151.00;;;;10375779;28;20222;-79
2024/02/27 15:22:10;;;;;;;5.63;4.53;;;;;13.60;101148.00;;;;10379323;28;20227;-77
2024/02/27 15:27:11;;;;;;;7.93;5.00;;;;;12.40;101155.00;;;;10363903;28;20629;-78
2024/02/27 15:32:13;;;;;;;5.27;4.53;;;;;13.90;101147.00;;;;10359406;28;20554;-78
2024/02/27 15:37:14;;;;;;;6.57;4.87;;;;;13.60;101151.00;;;;10353773;28;20609;-79
2024/02/27 15:42:16;;;;;;;5.67;4.67;;;;;12.20;101173.00;;;;10365591;28;20309;-78
2024/02/27 15:47:17;;;;;;;6.53;4.73;;;;;11.20;101168.00;;;;10354542;28;20211;-78
2024/02/27 15:52:18;;;;;;;6.03;4.83;;;;;10.80;101161.00;;;;10348545;28;20314;-78
2024/02/27 15:57:19;;;;;;;11.57;7.30;;;;;10.50;101177.00;;;;10362699;28;20238;-78
2024/02/27 16:02:21;;;;;;;11.83;8.10;;;;;10.20;101182.00;;;;10347535;28;20226;-78
2024/02/27 16:07:32;;;;;;;12.03;7.83;;;;;10.00;101165.00;;;;10327618;28;20249;-79
2024/02/27 16:12:33;;;;;;;12.53;8.97;;;;;9.90;101175.00;;;;10372612;28;20293;-79
2024/02/27 16:17:39;;;;;;;13.07;8.70;;;;;9.70;101193.00;;;;10351361;28;20318;-80
2024/02/27 16:22:40;;;;;;;12.47;7.87;;;;;9.50;101193.00;;;;10375606;28;20249;-78
2024/02/27 16:27:42;;;;;;;13.10;9.03;;;;;9.30;101207.00;;;;10382896;28;20234;-78
2024/02/27 16:32:45;;;;;;;14.10;8.47;;;;;9.00;101218.00;;;;10375804;28;20310;-78
2024/02/27 16:37:46;;;;;;;14.23;8.10;;;;;8.80;101220.00;;;;10396067;28;20318;-79
2024/02/27 16:42:47;;;;;;;11.37;7.97;;;;;8.70;101232.00;;;;10352819;28;20250;-79
2024/02/27 16:47:48;;;;;;;14.27;8.67;;;;;8.50;101243.00;;;;10317394;28;20253;-79
2024/02/27 16:52:50;;;;;;;10.93;8.63;;;;;8.20;101254.00;;;;10340053;28;20294;-79
2024/02/27 16:57:51;;;;;;;11.63;8.40;;;;;8.10;101259.00;;;;10363531;28;20242;-79
2024/02/27 17:02:53;;;;;;;11.47;8.40;;;;;7.90;101277.00;;;;10358753;28;21036;-78
2024/02/27 17:07:54;;;;;;;12.30;8.73;;;;;7.70;101286.00;;;;10367432;28;20298;-78
2024/02/27 17:12:56;;;;;;;13.80;10.00;;;;;7.60;101293.00;;;;10355254;28;20223;-78
2024/02/27 17:17:57;;;;;;;13.87;8.67;;;;;7.40;101291.00;;;;10358846;28;20230;-80
2024/02/27 17:23:00;;;;;;;15.33;9.17;;;;;7.30;101304.00;;;;10371951;28;20222;-78
2024/02/27 17:28:01;;;;;;;12.13;9.07;;;;;7.10;101302.00;;;;10386655;28;20309;-76
2024/02/27 17:33:03;;;;;;;22.93;10.60;;;;;6.90;101314.00;;;;10385059;28;20245;-77
2024/02/27 17:38:04;;;;;;;12.23;8.93;;;;;6.80;101318.00;;;;10402679;28;20242;-78
2024/02/27 17:43:06;;;;;;;13.43;8.77;;;;;6.70;101318.00;;;;10384204;28;20245;-77
2024/02/27 17:48:12;;;;;;;13.47;8.70;;;;;6.60;101325.00;;;;10389996;28;20635;-77
2024/02/27 17:53:14;;;;;;;12.83;9.17;;;;;6.50;101336.00;;;;10366556;28;20225;-78
2024/02/27 17:58:15;;;;;;;14.97;10.10;;;;;6.40;101357.00;;;;10385211;28;20313;-77
2024/02/27 18:03:18;;;;;;;16.27;10.93;;;;;6.30;101368.00;;;;10365805;28;20250;-78
2024/02/27 18:08:19;;;;;;;11.43;9.07;;;;;6.20;101369.00;;;;10368396;28;20230;-77
2024/02/27 18:13:20;;;;;;;21.43;11.83;;;;;6.20;101376.00;;;;10381523;28;20317;-76
2024/02/27 18:18:21;;;;;;;14.13;9.60;;;;;6.10;101382.00;;;;10362881;28;20317;-77
2024/02/27 18:23:27;;;;;;;22.20;11.23;;;;;6.00;101379.00;;;;10362750;28;20230;-77
2024/02/27 18:28:28;;;;;;;17.23;11.20;;;;;5.90;101395.00;;;;10383625;28;20246;-79
2024/02/27 18:33:30;;;;;;;18.27;11.40;;;;;5.90;101400.00;;;;10363606;28;20250;-76
2024/02/27 18:38:31;;;;;;;18.13;11.20;;;;;5.90;101393.00;;;;10366538;28;20658;-78
2024/02/27 18:43:32;;;;;;;19.23;11.77;;;;;5.80;101393.00;;;;10375859;28;20223;-78
2024/02/27 18:48:34;;;;;;;22.17;11.47;;;;;5.80;101395.00;;;;10376174;28;20242;-81
2024/02/27 18:53:38;;;;;;;16.27;10.17;;;;;5.70;101388.00;;;;10382348;28;20224;-79
2024/02/27 18:58:39;;;;;;;17.67;11.30;;;;;5.70;101393.00;;;;10372947;28;20882;-78
2024/02/27 19:03:41;;;;;;;19.87;12.53;;;;;5.70;101395.00;;;;10378294;28;20214;-78
2024/02/27 19:08:42;;;;;;;17.47;11.73;;;;;5.70;101414.00;;;;10383499;28;20248;-78
2024/02/27 19:13:43;;;;;;;18.63;11.50;;;;;5.60;101414.00;;;;10374520;28;20222;-79
2024/02/27 19:18:45;;;;;;;17.13;11.07;;;;;5.60;101416.00;;;;10407049;28;20313;-78
2024/02/27 19:23:46;;;;;;;17.10;11.13;;;;;5.50;101419.00;;;;10382923;28;20242;-78
2024/02/27 19:28:47;;;;;;;18.03;12.23;;;;;5.40;101431.00;;;;10411311;28;20215;-78
2024/02/27 19:33:49;;;;;;;23.27;14.13;;;;;5.40;101423.00;;;;10410554;28;20833;-80
2024/02/27 19:38:50;;;;;;;38.77;21.03;;;;;5.30;101436.00;;;;10374940;28;20772;-79
2024/02/27 19:43:51;;;;;;;29.00;15.73;;;;;5.30;101432.00;;;;10368723;28;20233;-78
2024/02/27 19:48:52;;;;;;;20.07;12.63;;;;;5.20;101448.00;;;;10358176;28;20226;-77
2024/02/27 19:53:54;;;;;;;16.97;11.53;;;;;5.20;101445.00;;;;10368659;28;20301;-78
2024/02/27 19:58:55;;;;;;;16.20;9.60;;;;;5.10;101439.00;;;;10379252;28;20217;-78
2024/02/27 20:03:56;;;;;;;15.47;9.83;;;;;5.10;101444.00;;;;10378717;28;20273;-78
2024/02/27 20:08:57;;;;;;;16.67;10.97;;;;;5.00;101437.00;;;;10364412;28;20222;-78
2024/02/27 20:13:58;;;;;;;18.87;10.90;;;;;4.90;101432.00;;;;10358407;28;20919;-78
2024/02/27 20:18:59;;;;;;;19.50;10.97;;;;;4.80;101436.00;;;;10364785;28;20254;-79
2024/02/27 20:24:02;;;;;;;16.57;10.97;;;;;4.70;101440.00;;;;10370285;28;20353;-78
2024/02/27 20:29:04;;;;;;;18.50;11.20;;;;;4.70;101443.00;;;;10333817;28;20226;-78
2024/02/27 20:34:05;;;;;;;18.20;12.03;;;;;4.50;101444.00;;;;10357409;28;20690;-78
2024/02/27 20:39:07;;;;;;;20.70;13.80;;;;;4.40;101435.00;;;;10354367;28;20223;-78
2024/02/27 20:44:09;;;;;;;19.40;12.03;;;;;4.30;101433.00;;;;10343236;28;20223;-78
2024/02/27 20:49:10;;;;;;;16.87;11.57;;;;;4.10;101428.00;;;;10373229;28;20218;-77
2024/02/27 20:54:11;;;;;;;20.73;11.83;;;;;4.00;101447.00;;;;10359791;28;20330;-78
2024/02/27 20:59:12;;;;;;;17.10;12.00;;;;;3.90;101447.00;;;;10312309;28;20223;-80
2024/02/27 21:04:13;;;;;;;16.57;11.43;;;;;3.70;101455.00;;;;10340969;28;20230;-80
2024/02/27 21:09:14;;;;;;;18.87;10.83;;;;;3.60;101463.00;;;;10334860;28;20219;-80
2024/02/27 21:14:16;;;;;;;17.60;10.40;;;;;3.50;101471.00;;;;10348267;28;20759;-81
2024/02/27 21:19:17;;;;;;;16.20;11.17;;;;;3.40;101477.00;;;;10359692;28;20246;-80
2024/02/27 21:24:18;;;;;;;19.50;13.33;;;;;3.30;101477.00;;;;10358850;28;20265;-80
2024/02/27 21:29:19;;;;;;;19.77;13.63;;;;;3.30;101483.00;;;;10368948;28;20306;-79
2024/02/27 21:34:20;;;;;;;22.90;14.33;;;;;3.20;101479.00;;;;10356115;28;20313;-80
2024/02/27 21:39:21;;;;;;;27.07;15.97;;;;;3.10;101474.00;;;;10360752;28;20222;-81
2024/02/27 21:44:23;;;;;;;22.10;14.10;;;;;3.00;101469.00;;;;10349148;28;20214;-81
2024/02/27 21:49:24;;;;;;;23.77;13.63;;;;;3.00;101482.00;;;;10352483;28;21000;-81
2024/02/27 21:54:26;;;;;;;20.93;14.43;;;;;3.00;101484.00;;;;10379580;28;20302;-80
2024/02/27 21:59:27;;;;;;;23.80;14.90;;;;;3.10;101482.00;;;;10352077;28;20589;-81
2024/02/27 22:04:28;;;;;;;25.30;13.07;;;;;3.20;101491.00;;;;10361046;28;20219;-81
2024/02/27 22:09:30;;;;;;;19.80;12.93;;;;;3.20;101499.00;;;;10335834;28;20246;-79
2024/02/27 22:14:31;;;;;;;17.07;12.63;;;;;3.20;101493.00;;;;10383774;28;20230;-79
2024/02/27 22:19:33;;;;;;;21.70;13.50;;;;;3.00;101494.00;;;;10386809;28;20241;-79
2024/02/27 22:24:34;;;;;;;18.83;13.27;;;;;2.90;101494.00;;;;10385734;28;20249;-79
2024/02/27 22:29:35;;;;;;;18.47;12.57;;;;;2.80;101483.00;;;;10439521;28;20229;-78
2024/02/27 22:34:37;;;;;;;20.67;13.50;;;;;2.70;101483.00;;;;10418137;28;20225;-79
2024/02/27 22:39:38;;;;;;;21.10;13.80;;;;;2.60;101485.00;;;;10355840;28;20298;-79
2024/02/27 22:44:39;;;;;;;17.63;12.33;;;;;2.50;101489.00;;;;10363936;28;20219;-79
2024/02/27 22:49:40;;;;;;;19.07;12.70;;;;;2.50;101496.00;;;;10383533;28;20211;-78
2024/02/27 22:54:41;;;;;;;21.70;13.07;;;;;2.40;101485.00;;;;10389380;28;20246;-79
2024/02/27 22:59:43;;;;;;;21.50;12.83;;;;;2.40;101491.00;;;;10357556;28;20729;-79
2024/02/27 23:04:44;;;;;;;21.60;12.83;;;;;2.40;101484.00;;;;10349639;28;20637;-79
2024/02/27 23:09:45;;;;;;;17.20;12.27;;;;;2.40;101474.00;;;;10351925;28;20229;-79
2024/02/27 23:14:46;;;;;;;26.23;13.60;;;;;2.50;101483.00;;;;10359288;28;20230;-79
2024/02/27 23:19:47;;;;;;;22.60;14.83;;;;;2.50;101481.00;;;;10365228;28;20313;-77
2024/02/27 23:24:49;;;;;;;23.00;14.10;;;;;2.60;101468.00;;;;10361305;28;20222;-77
2024/02/27 23:29:51;;;;;;;24.93;15.03;;;;;2.60;101478.00;;;;10378770;28;20598;-77
2024/02/27 23:34:52;;;;;;;22.73;14.70;;;;;2.60;101489.00;;;;10336741;28;20272;-77
2024/02/27 23:39:54;;;;;;;19.80;13.13;;;;;2.60;101483.00;;;;10372052;28;20250;-78
2024/02/27 23:44:55;;;;;;;18.17;13.03;;;;;2.50;101478.00;;;;10357300;28;20576;-76
2024/02/27 23:49:57;;;;;;;17.77;12.63;;;;;2.40;101484.00;;;;10344519;28;20268;-77
2024/02/27 23:54:58;;;;;;;21.57;12.33;;;;;2.30;101488.00;;;;10380956;28;20225;-78
